Time;durP1;ratioP1;P1;durP2;ratioP2;P2;SDS_P1;SDS_P2;PMS_P1;PMS_P2;Temp;Humidity;BMP_temperature;BMP_pressure;BME280_temperature;BME280_humidity;BME280_pressure;Samples;Min_cycle;Max_cycle;Signal;HPM_P1;HPM_P2
2023/11/07 00:01:22;;;;;;;34.22;18.58;;;2.10;99.90;;;;;;4999783;28;20479;-82
2023/11/07 00:03:48;;;;;;;31.17;17.25;;;2.10;99.90;;;;;;5076394;28;20038;-77
2023/11/07 00:06:13;;;;;;;34.70;18.63;;;2.10;99.90;;;;;;5079837;28;20026;-81
2023/11/07 00:08:39;;;;;;;31.67;18.75;;;2.10;99.90;;;;;;5080380;28;20376;-77
2023/11/07 00:11:05;;;;;;;31.05;20.52;;;2.10;99.90;;;;;;5080198;28;20017;-77
2023/11/07 00:13:30;;;;;;;32.95;17.75;;;2.10;99.90;;;;;;5080273;28;20120;-77
2023/11/07 00:15:56;;;;;;;35.53;19.08;;;2.10;99.90;;;;;;5079845;28;20533;-77
2023/11/07 00:18:21;;;;;;;36.80;19.48;;;2.00;99.90;;;;;;5012224;28;20105;-82
2023/11/07 00:20:47;;;;;;;30.77;18.30;;;2.00;99.90;;;;;;5080042;28;20029;-82
2023/11/07 00:23:13;;;;;;;33.50;17.85;;;2.00;99.90;;;;;;5038642;28;20022;-77
2023/11/07 00:25:39;;;;;;;34.33;19.17;;;2.00;99.90;;;;;;5078309;28;20044;-77
2023/11/07 00:28:05;;;;;;;32.92;17.63;;;2.00;99.90;;;;;;5037668;28;20457;-78
2023/11/07 00:30:31;;;;;;;32.33;19.20;;;2.00;99.90;;;;;;5078648;28;20022;-82
2023/11/07 00:32:57;;;;;;;36.08;17.90;;;2.00;99.90;;;;;;5079848;28;20030;-82
2023/11/07 00:35:23;;;;;;;34.95;18.70;;;1.90;99.90;;;;;;5080154;28;20066;-78
2023/11/07 00:37:51;;;;;;;34.60;17.70;;;1.90;99.90;;;;;;5079676;28;20029;-82
2023/11/07 00:40:17;;;;;;;32.00;17.23;;;1.90;99.90;;;;;;5079843;28;20456;-77
2023/11/07 00:42:45;;;;;;;34.00;16.27;;;1.90;99.90;;;;;;5078751;28;20030;-77
2023/11/07 00:45:10;;;;;;;26.58;15.70;;;1.90;99.90;;;;;;5011644;28;20101;-82
2023/11/07 00:47:36;;;;;;;30.77;16.63;;;1.90;99.90;;;;;;5079615;28;20109;-77
2023/11/07 00:50:01;;;;;;;30.50;16.35;;;1.90;99.90;;;;;;5011746;28;20414;-77
2023/11/07 00:52:28;;;;;;;33.38;18.02;;;1.90;99.90;;;;;;5011701;28;20028;-76
2023/11/07 00:54:53;;;;;;;28.67;17.42;;;1.80;99.90;;;;;;5079358;28;20079;-81
2023/11/07 00:57:19;;;;;;;31.13;17.70;;;1.80;99.90;;;;;;5079215;28;20026;-77
2023/11/07 00:59:45;;;;;;;31.25;17.35;;;1.80;99.90;;;;;;5078853;28;20026;-77
2023/11/07 01:02:11;;;;;;;33.65;17.30;;;1.80;99.90;;;;;;5065878;28;20463;-77
2023/11/07 01:04:37;;;;;;;32.50;18.42;;;1.80;99.90;;;;;;5079135;28;20501;-77
2023/11/07 01:07:03;;;;;;;33.35;17.05;;;1.80;99.90;;;;;;5079134;28;20022;-77
2023/11/07 01:09:28;;;;;;;28.30;15.70;;;1.70;99.90;;;;;;5011577;28;20013;-81
2023/11/07 01:11:54;;;;;;;26.33;14.25;;;1.70;99.90;;;;;;5011482;28;20040;-81
2023/11/07 01:14:19;;;;;;;27.98;14.57;;;1.70;99.90;;;;;;5011480;28;20030;-81
2023/11/07 01:16:45;;;;;;;29.65;15.55;;;1.70;99.90;;;;;;5079473;28;20476;-81
2023/11/07 01:19:11;;;;;;;26.05;15.55;;;1.70;99.90;;;;;;5011240;28;20046;-77
2023/11/07 01:21:36;;;;;;;31.55;16.95;;;1.70;99.90;;;;;;5079010;28;20502;-81
2023/11/07 01:24:03;;;;;;;32.92;18.15;;;1.60;99.90;;;;;;5011199;28;20037;-81
2023/11/07 01:26:28;;;;;;;44.58;23.58;;;1.70;99.90;;;;;;5079244;28;20195;-76
2023/11/07 01:28:54;;;;;;;44.45;23.23;;;1.60;99.90;;;;;;5011166;28;20109;-80
2023/11/07 01:31:19;;;;;;;32.95;19.58;;;1.60;99.90;;;;;;5011205;28;20030;-76
2023/11/07 01:33:45;;;;;;;37.78;19.40;;;1.60;99.90;;;;;;5010842;28;20112;-76
2023/11/07 01:36:11;;;;;;;35.42;18.73;;;1.60;99.90;;;;;;5078942;28;20095;-81
2023/11/07 01:38:36;;;;;;;39.65;19.98;;;1.70;99.90;;;;;;5011042;28;20488;-77
2023/11/07 01:41:02;;;;;;;37.92;17.67;;;1.70;99.90;;;;;;5011339;28;20029;-80
2023/11/07 01:43:28;;;;;;;30.50;16.75;;;1.70;99.90;;;;;;5078559;28;20037;-81
2023/11/07 01:45:59;;;;;;;27.63;15.88;;;1.70;99.90;;;;;;5010892;28;20494;-76
2023/11/07 01:48:25;;;;;;;27.27;15.40;;;1.70;99.90;;;;;;5065886;28;20106;-76
2023/11/07 01:50:51;;;;;;;24.60;14.93;;;1.60;99.90;;;;;;5010536;28;20045;-77
2023/11/07 01:53:20;;;;;;;38.55;16.60;;;1.70;99.90;;;;;;5011469;28;20467;-81
2023/11/07 01:55:45;;;;;;;24.67;14.68;;;1.70;99.90;;;;;;5010496;28;20030;-81
2023/11/07 01:58:12;;;;;;;27.08;14.27;;;1.70;99.90;;;;;;5078667;28;20467;-76
2023/11/07 02:00:39;;;;;;;25.13;13.85;;;1.70;99.90;;;;;;5010424;28;20105;-76
2023/11/07 02:03:06;;;;;;;22.42;13.52;;;1.80;99.90;;;;;;5094016;28;20023;-76
2023/11/07 02:05:33;;;;;;;23.52;12.85;;;1.80;99.90;;;;;;5041357;28;20429;-76
2023/11/07 02:07:58;;;;;;;27.98;18.05;;;1.70;99.90;;;;;;5078276;28;20022;-80
2023/11/07 02:10:24;;;;;;;25.90;14.38;;;1.80;99.90;;;;;;5010523;28;20026;-81
2023/11/07 02:12:50;;;;;;;23.63;13.93;;;1.70;99.90;;;;;;5078260;28;20514;-77
2023/11/07 02:15:34;;;;;;;27.35;14.82;;;1.70;99.90;;;;;;5010358;28;20479;-81
2023/11/07 02:18:01;;;;;;;33.13;17.45;;;1.70;99.90;;;;;;5069740;28;20041;-77
2023/11/07 02:20:27;;;;;;;31.73;19.15;;;1.50;99.90;;;;;;5077281;28;20022;-81
2023/11/07 02:23:05;;;;;;;32.13;17.92;;;1.50;99.90;;;;;;5007486;28;20109;-81
2023/11/07 02:25:31;;;;;;;29.00;17.17;;;1.50;99.90;;;;;;5065835;28;20045;-77
2023/11/07 02:27:58;;;;;;;27.85;15.88;;;1.50;99.90;;;;;;5077460;28;20525;-81
2023/11/07 02:30:25;;;;;;;31.35;18.27;;;1.40;99.90;;;;;;5010474;28;20022;-77
2023/11/07 02:32:51;;;;;;;31.77;16.77;;;1.40;99.90;;;;;;5077561;28;20022;-77
2023/11/07 02:35:17;;;;;;;28.30;14.95;;;1.40;99.90;;;;;;5074403;28;20388;-80
2023/11/07 02:37:46;;;;;;;27.35;14.88;;;1.40;99.90;;;;;;5006420;28;20064;-77
2023/11/07 02:40:12;;;;;;;21.70;14.48;;;1.40;99.90;;;;;;5077550;28;20026;-77
2023/11/07 02:42:38;;;;;;;19.95;12.82;;;1.40;99.90;;;;;;5077556;28;20018;-77
2023/11/07 02:45:04;;;;;;;20.50;12.55;;;1.40;99.90;;;;;;5074527;28;20053;-78
2023/11/07 02:47:30;;;;;;;24.55;12.57;;;1.50;99.90;;;;;;5073834;28;20022;-81
2023/11/07 02:49:55;;;;;;;20.08;13.27;;;1.40;99.90;;;;;;5010167;28;20121;-78
2023/11/07 02:52:21;;;;;;;23.02;12.85;;;1.50;99.90;;;;;;5009661;28;20022;-77
2023/11/07 02:54:48;;;;;;;18.60;11.55;;;1.50;99.90;;;;;;5077415;28;20391;-81
2023/11/07 02:57:14;;;;;;;21.27;11.93;;;1.50;99.90;;;;;;5010197;28;20037;-78
2023/11/07 02:59:40;;;;;;;20.00;12.00;;;1.50;99.90;;;;;;5077597;28;20080;-78
2023/11/07 03:02:06;;;;;;;21.58;12.60;;;1.50;99.90;;;;;;5009798;28;20033;-77
2023/11/07 03:04:32;;;;;;;22.77;12.50;;;1.50;99.90;;;;;;5077591;28;20022;-77
2023/11/07 03:06:58;;;;;;;25.95;13.85;;;1.40;99.90;;;;;;5081612;28;20037;-81
2023/11/07 03:09:24;;;;;;;27.73;14.90;;;1.40;99.90;;;;;;5013238;28;20375;-78
2023/11/07 03:11:50;;;;;;;30.80;14.50;;;1.30;99.90;;;;;;5081481;28;20112;-82
2023/11/07 03:14:16;;;;;;;22.63;15.00;;;1.30;99.90;;;;;;5013161;28;20105;-81
2023/11/07 03:16:42;;;;;;;23.77;14.85;;;1.20;99.90;;;;;;5081463;28;20045;-81
2023/11/07 03:19:08;;;;;;;23.27;13.80;;;1.20;99.90;;;;;;5081249;28;20022;-77
2023/11/07 03:21:34;;;;;;;28.25;13.93;;;1.20;99.90;;;;;;5081410;28;20022;-82
2023/11/07 03:24:00;;;;;;;25.95;13.82;;;1.10;99.90;;;;;;5012974;28;20507;-80
2023/11/07 03:26:26;;;;;;;32.58;17.73;;;1.10;99.90;;;;;;5012749;28;20018;-76
2023/11/07 03:28:54;;;;;;;36.92;20.15;;;1.00;99.90;;;;;;5012878;28;20459;-81
2023/11/07 03:31:20;;;;;;;31.45;17.48;;;1.00;99.90;;;;;;5013138;28;20108;-78
2023/11/07 03:33:46;;;;;;;26.17;15.80;;;1.00;99.90;;;;;;5013004;28;20121;-81
2023/11/07 03:36:15;;;;;;;34.05;18.17;;;0.90;99.90;;;;;;5013010;28;20026;-81
2023/11/07 03:38:43;;;;;;;31.17;19.55;;;0.90;99.90;;;;;;5012871;28;20076;-78
2023/11/07 03:41:09;;;;;;;42.50;23.30;;;0.90;99.90;;;;;;5081165;28;20018;-81
2023/11/07 03:43:34;;;;;;;40.55;24.10;;;0.90;99.90;;;;;;5077658;28;20497;-81
2023/11/07 03:46:00;;;;;;;43.47;25.70;;;1.00;99.90;;;;;;5070999;28;20109;-76
2023/11/07 03:48:26;;;;;;;48.67;26.48;;;1.00;99.90;;;;;;5079502;28;20022;-81
2023/11/07 03:50:55;;;;;;;48.42;26.83;;;1.00;99.90;;;;;;5012827;28;20075;-81
2023/11/07 03:53:21;;;;;;;54.13;26.27;;;0.90;99.90;;;;;;5012597;28;20030;-77
2023/11/07 03:55:46;;;;;;;40.90;20.65;;;1.00;99.90;;;;;;5080876;28;20502;-77
2023/11/07 03:58:12;;;;;;;34.85;18.98;;;1.00;99.90;;;;;;5012423;28;20463;-80
2023/11/07 04:00:40;;;;;;;37.22;19.60;;;1.10;99.90;;;;;;5012441;28;20058;-77
2023/11/07 04:03:06;;;;;;;30.70;16.40;;;1.10;99.90;;;;;;5080701;28;20071;-81
2023/11/07 04:05:32;;;;;;;26.80;15.52;;;1.00;99.90;;;;;;5080208;28;20029;-81
2023/11/07 04:07:58;;;;;;;26.23;14.55;;;1.10;99.90;;;;;;5012321;28;20025;-81
2023/11/07 04:10:24;;;;;;;26.00;12.70;;;1.10;99.90;;;;;;5080531;28;20018;-76
2023/11/07 04:12:51;;;;;;;25.13;13.77;;;1.10;99.90;;;;;;5080203;28;20498;-80
2023/11/07 04:15:17;;;;;;;27.00;12.07;;;1.10;99.90;;;;;;5080451;28;20022;-80
2023/11/07 04:17:42;;;;;;;29.83;14.70;;;1.10;99.90;;;;;;5080103;28;20127;-77
2023/11/07 04:20:11;;;;;;;35.70;19.05;;;1.10;99.90;;;;;;5012327;28;20065;-76
2023/11/07 04:22:38;;;;;;;39.20;19.83;;;1.10;99.90;;;;;;5011984;28;20101;-76
2023/11/07 04:25:04;;;;;;;35.03;18.63;;;1.10;99.90;;;;;;5012281;28;20037;-81
2023/11/07 04:27:29;;;;;;;36.70;19.08;;;1.00;99.90;;;;;;5011458;28;20121;-77
2023/11/07 04:29:55;;;;;;;35.45;18.10;;;1.00;99.90;;;;;;5080129;28;20122;-81
2023/11/07 04:32:22;;;;;;;40.58;19.85;;;1.00;99.90;;;;;;5058049;28;20047;-81
2023/11/07 04:34:47;;;;;;;35.03;18.15;;;1.00;99.90;;;;;;5080028;28;20022;-76
2023/11/07 04:37:14;;;;;;;29.40;16.95;;;1.10;99.90;;;;;;5011840;28;20049;-76
2023/11/07 04:39:39;;;;;;;26.48;14.10;;;1.10;99.90;;;;;;5080107;28;20045;-76
2023/11/07 04:42:07;;;;;;;24.77;13.23;;;1.10;99.90;;;;;;5079665;28;20099;-81
2023/11/07 04:44:33;;;;;;;26.92;13.80;;;1.10;99.90;;;;;;5011965;28;20033;-80
2023/11/07 04:47:02;;;;;;;25.45;12.75;;;1.10;99.90;;;;;;5011536;28;20018;-81
2023/11/07 04:49:30;;;;;;;23.67;11.90;;;1.20;99.90;;;;;;5080153;28;20030;-77
2023/11/07 04:51:56;;;;;;;24.45;14.75;;;1.20;99.90;;;;;;5076896;28;20441;-81
2023/11/07 04:54:24;;;;;;;59.72;29.75;;;1.20;99.90;;;;;;5079815;28;20034;-77
2023/11/07 04:56:50;;;;;;;46.80;23.08;;;1.20;99.90;;;;;;5011619;28;20041;-81
2023/11/07 04:59:16;;;;;;;40.33;21.27;;;1.10;99.90;;;;;;5011899;28;20087;-82
2023/11/07 05:01:45;;;;;;;45.05;22.63;;;1.10;99.90;;;;;;5008072;28;20538;-77
2023/11/07 05:04:10;;;;;;;71.80;35.97;;;1.10;99.90;;;;;;5003064;28;20026;-76
2023/11/07 05:06:36;;;;;;;81.85;43.75;;;1.10;99.90;;;;;;5079134;28;20030;-77
2023/11/07 05:09:07;;;;;;;88.05;41.80;;;1.20;99.90;;;;;;5079335;28;20018;-78
2023/11/07 05:11:33;;;;;;;53.05;27.98;;;1.20;99.90;;;;;;5077083;28;20014;-77
2023/11/07 05:13:59;;;;;;;24.75;14.73;;;1.20;99.90;;;;;;5079191;28;20060;-81
2023/11/07 05:16:24;;;;;;;19.33;11.00;;;1.20;99.90;;;;;;5011095;28;20037;-81
2023/11/07 05:18:50;;;;;;;23.05;10.23;;;1.30;99.90;;;;;;5079180;28;20018;-81
2023/11/07 05:21:16;;;;;;;18.17;11.23;;;1.30;99.90;;;;;;5079087;28;20030;-76
2023/11/07 05:23:42;;;;;;;34.83;19.13;;;1.30;99.90;;;;;;5079159;28;20030;-78
2023/11/07 05:26:08;;;;;;;59.15;31.75;;;1.30;99.90;;;;;;5079025;28;20095;-76
2023/11/07 05:28:36;;;;;;;57.33;30.05;;;1.20;99.90;;;;;;5078522;28;20061;-77
2023/11/07 05:31:02;;;;;;;54.15;28.88;;;1.20;99.90;;;;;;5011650;28;20037;-80
2023/11/07 05:33:28;;;;;;;62.70;34.63;;;1.10;99.90;;;;;;5040555;28;20038;-77
2023/11/07 05:35:53;;;;;;;68.55;39.47;;;1.10;99.90;;;;;;5078794;28;20063;-77
2023/11/07 05:38:20;;;;;;;40.47;23.05;;;1.10;99.90;;;;;;5011007;28;20029;-77
2023/11/07 05:40:47;;;;;;;55.88;30.13;;;1.10;99.90;;;;;;5075599;28;20482;-76
2023/11/07 05:43:12;;;;;;;49.45;26.52;;;1.10;99.90;;;;;;5072972;28;20110;-80
2023/11/07 05:45:38;;;;;;;22.67;13.85;;;1.20;99.90;;;;;;5078687;28;20045;-76
2023/11/07 05:48:04;;;;;;;20.77;11.70;;;1.20;99.90;;;;;;5032343;28;20076;-81
2023/11/07 05:50:31;;;;;;;20.98;12.48;;;1.10;99.90;;;;;;5073262;28;20037;-81
2023/11/07 05:52:57;;;;;;;18.00;10.73;;;1.20;99.90;;;;;;5004547;28;20069;-81
2023/11/07 05:55:22;;;;;;;19.48;11.38;;;1.20;99.90;;;;;;5002852;28;20445;-80
2023/11/07 05:57:48;;;;;;;20.15;13.70;;;1.30;99.90;;;;;;5076193;28;20030;-81
2023/11/07 06:00:14;;;;;;;24.70;13.15;;;1.40;99.90;;;;;;5008964;28;20057;-81
2023/11/07 06:02:40;;;;;;;27.15;13.20;;;1.40;99.90;;;;;;5073361;28;20360;-81
2023/11/07 06:05:06;;;;;;;23.55;13.75;;;1.40;99.90;;;;;;5077232;28;20055;-80
2023/11/07 06:07:35;;;;;;;25.17;13.23;;;1.50;99.90;;;;;;5007423;28;20504;-81
2023/11/07 06:10:01;;;;;;;28.77;14.98;;;1.60;99.90;;;;;;5070442;28;20026;-80
2023/11/07 06:12:30;;;;;;;23.42;13.98;;;1.70;99.90;;;;;;5000554;28;20082;-82
2023/11/07 06:14:58;;;;;;;25.42;14.18;;;1.80;99.90;;;;;;5077910;28;20042;-82
2023/11/07 06:17:27;;;;;;;42.35;19.48;;;1.80;99.90;;;;;;5077501;28;20065;-80
2023/11/07 06:19:53;;;;;;;91.60;40.33;;;1.90;99.90;;;;;;5079681;28;20063;-80
2023/11/07 06:22:18;;;;;;;162.57;68.15;;;1.90;99.90;;;;;;5009029;28;20101;-80
2023/11/07 06:24:46;;;;;;;154.05;61.92;;;1.90;99.90;;;;;;5070251;28;20110;-80
2023/11/07 06:27:11;;;;;;;57.35;27.50;;;1.90;99.90;;;;;;4997910;28;20045;-79
2023/11/07 06:29:41;;;;;;;50.17;25.98;;;2.00;99.90;;;;;;5005687;28;20480;-79
2023/11/07 06:32:09;;;;;;;31.67;17.17;;;2.10;99.90;;;;;;5005126;28;20029;-80
2023/11/07 06:34:35;;;;;;;40.65;23.75;;;2.20;99.90;;;;;;4997232;28;20022;-80
2023/11/07 06:37:03;;;;;;;35.33;18.20;;;2.30;99.90;;;;;;5073550;28;20030;-80
2023/11/07 06:39:29;;;;;;;37.00;19.52;;;2.40;99.90;;;;;;5065635;28;20026;-81
2023/11/07 06:41:55;;;;;;;48.70;26.70;;;2.50;99.90;;;;;;5065545;28;20034;-80
2023/11/07 06:44:21;;;;;;;54.45;30.23;;;2.70;99.90;;;;;;5010096;28;20075;-77
2023/11/07 06:46:51;;;;;;;44.25;22.95;;;2.80;99.90;;;;;;5076878;28;20432;-76
2023/11/07 06:49:16;;;;;;;42.33;23.17;;;2.90;99.90;;;;;;5075771;28;20109;-76
2023/11/07 06:51:43;;;;;;;159.52;68.50;;;3.00;99.90;;;;;;5004855;28;20093;-76
2023/11/07 06:54:08;;;;;;;126.10;59.55;;;3.00;99.90;;;;;;5077122;28;20414;-80
2023/11/07 06:56:34;;;;;;;227.18;97.63;;;3.10;99.90;;;;;;5009432;28;20032;-79
2023/11/07 06:59:00;;;;;;;143.18;64.40;;;3.10;99.90;;;;;;5073521;28;20539;-81
2023/11/07 07:01:28;;;;;;;89.43;43.97;;;3.30;99.90;;;;;;5076320;28;20018;-80
2023/11/07 07:03:54;;;;;;;67.10;32.17;;;3.40;99.90;;;;;;5004744;28;20022;-80
2023/11/07 07:06:23;;;;;;;54.20;26.48;;;3.60;99.90;;;;;;5075168;28;20494;-81
2023/11/07 07:08:48;;;;;;;55.97;25.33;;;3.80;99.90;;;;;;5075094;28;20085;-81
2023/11/07 07:11:14;;;;;;;81.55;35.10;;;4.00;99.90;;;;;;5074864;28;20036;-80
2023/11/07 07:47:19;;;;;;;162.02;53.65;;;5.70;99.90;;;;;;4993208;28;20077;-81
2023/11/07 07:49:45;;;;;;;58.80;25.60;;;5.90;99.90;;;;;;5005819;28;20057;-81
2023/11/07 07:52:11;;;;;;;36.25;17.85;;;6.00;99.90;;;;;;5081253;28;20027;-80
2023/11/07 07:54:38;;;;;;;35.05;16.73;;;6.20;99.90;;;;;;5066015;28;20571;-81
2023/11/07 07:57:08;;;;;;;42.67;21.58;;;6.30;99.90;;;;;;5012595;28;20105;-81
2023/11/07 07:59:40;;;;;;;37.85;16.00;;;6.50;99.90;;;;;;5011975;28;20391;-81
2023/11/07 08:02:07;;;;;;;40.28;18.60;;;6.70;99.90;;;;;;5011978;28;20038;-76
2023/11/07 08:04:32;;;;;;;66.75;32.22;;;6.80;99.90;;;;;;5077238;28;20117;-76
2023/11/07 08:06:59;;;;;;;26.23;12.20;;;7.00;99.90;;;;;;5009938;28;20443;-76
2023/11/07 08:09:26;;;;;;;32.45;13.35;;;7.00;99.90;;;;;;5008702;28;20360;-76
2023/11/07 08:11:56;;;;;;;28.73;12.85;;;7.20;99.90;;;;;;5078130;28;20022;-76
2023/11/07 08:14:23;;;;;;;36.97;13.10;;;7.40;99.90;;;;;;5076177;28;20033;-76
2023/11/07 08:16:50;;;;;;;21.92;11.23;;;7.50;99.90;;;;;;5080207;28;20030;-76
2023/11/07 08:19:17;;;;;;;16.48;9.23;;;7.70;99.90;;;;;;5080118;28;20021;-80
2023/11/07 08:21:43;;;;;;;38.15;16.83;;;7.70;99.90;;;;;;5078183;28;20055;-80
2023/11/07 08:24:12;;;;;;;29.02;12.75;;;7.90;99.90;;;;;;5009491;28;20026;-76
2023/11/07 08:26:38;;;;;;;71.47;27.10;;;8.00;99.90;;;;;;5079680;28;20030;-81
2023/11/07 08:29:07;;;;;;;26.48;11.30;;;8.10;99.90;;;;;;5012092;28;20328;-82
2023/11/07 08:31:34;;;;;;;22.15;9.25;;;8.20;99.90;;;;;;5080260;28;20032;-76
2023/11/07 08:34:00;;;;;;;26.38;10.77;;;8.40;99.90;;;;;;5011285;28;20487;-81
2023/11/07 08:36:27;;;;;;;18.55;7.38;;;8.50;99.90;;;;;;5012099;28;20041;-81
2023/11/07 08:38:52;;;;;;;35.22;13.15;;;8.60;99.90;;;;;;5011774;28;20390;-82
2023/11/07 08:41:18;;;;;;;21.67;10.13;;;8.80;99.90;;;;;;5011857;28;20030;-82
2023/11/07 08:43:44;;;;;;;14.20;7.18;;;8.90;99.90;;;;;;5079640;28;20060;-82
2023/11/07 08:46:09;;;;;;;26.63;9.55;;;9.10;99.90;;;;;;5088292;28;20100;-77
2023/11/07 08:48:35;;;;;;;23.15;11.82;;;9.20;99.90;;;;;;5092954;28;20123;-82
2023/11/07 08:51:01;;;;;;;81.40;28.45;;;9.30;99.90;;;;;;5092910;28;20054;-77
2023/11/07 08:53:27;;;;;;;50.08;15.80;;;9.40;99.90;;;;;;5085178;28;20028;-77
2023/11/07 08:55:53;;;;;;;21.00;7.28;;;9.50;99.90;;;;;;5085550;28;20115;-82
2023/11/07 08:58:19;;;;;;;19.48;7.82;;;9.70;99.90;;;;;;5093552;28;20051;-82
2023/11/07 09:00:51;;;;;;;24.65;9.60;;;9.80;99.90;;;;;;5094100;28;20024;-77
2023/11/07 09:03:16;;;;;;;10.93;5.70;;;9.90;99.90;;;;;;5092380;28;20489;-77
2023/11/07 09:05:42;;;;;;;19.10;8.80;;;10.00;99.90;;;;;;5093028;28;20292;-77
2023/11/07 09:08:07;;;;;;;14.65;7.30;;;10.10;99.90;;;;;;5088505;28;20035;-82
2023/11/07 09:10:33;;;;;;;11.65;5.93;;;10.20;99.90;;;;;;5085017;28;20385;-77
2023/11/07 09:12:59;;;;;;;24.73;12.25;;;10.20;99.90;;;;;;5081826;28;20417;-77
2023/11/07 09:15:25;;;;;;;29.58;12.05;;;10.30;99.90;;;;;;5085405;28;20389;-77
2023/11/07 09:17:51;;;;;;;24.95;9.13;;;10.40;99.90;;;;;;5087255;28;20024;-77
2023/11/07 09:20:18;;;;;;;16.77;7.10;;;10.50;99.90;;;;;;5093052;28;20023;-82
2023/11/07 09:22:45;;;;;;;11.48;5.30;;;10.60;99.90;;;;;;5092240;28;20069;-77
2023/11/07 09:25:15;;;;;;;11.50;4.93;;;10.70;99.90;;;;;;5092672;28;20031;-75
2023/11/07 09:27:41;;;;;;;9.45;5.53;;;10.80;99.90;;;;;;5092104;28;20020;-81
2023/11/07 09:30:09;;;;;;;11.73;3.33;;;10.90;99.90;;;;;;5081736;28;20025;-75
2023/11/07 09:32:36;;;;;;;8.65;4.07;;;11.00;95.70;;;;;;5091616;28;20087;-75
2023/11/07 09:35:06;;;;;;;9.00;3.88;;;11.10;85.30;;;;;;5092656;28;20106;-75
2023/11/07 09:37:33;;;;;;;6.03;2.65;;;11.20;82.80;;;;;;5093196;28;20483;-75
2023/11/07 09:39:59;;;;;;;9.93;3.35;;;11.20;75.80;;;;;;5092891;28;20450;-75
2023/11/07 09:42:28;;;;;;;7.70;3.45;;;11.20;75.60;;;;;;5092762;28;20051;-75
2023/11/07 09:44:54;;;;;;;3.30;1.65;;;11.20;74.00;;;;;;5090608;28;20086;-76
2023/11/07 09:47:20;;;;;;;4.88;2.42;;;11.30;73.30;;;;;;5090856;28;20493;-76
2023/11/07 09:49:45;;;;;;;6.55;2.90;;;11.20;73.60;;;;;;5089455;28;20103;-76
2023/11/07 09:52:14;;;;;;;4.15;1.75;;;11.20;73.20;;;;;;5093211;28;20046;-80
2023/11/07 09:54:42;;;;;;;1.95;1.40;;;11.20;73.20;;;;;;5093649;28;20083;-76
2023/11/07 09:57:08;;;;;;;1.50;1.02;;;11.30;72.00;;;;;;5075769;28;20039;-81
2023/11/07 09:59:37;;;;;;;3.35;1.67;;;11.30;72.20;;;;;;5075768;28;20029;-81
2023/11/07 10:02:04;;;;;;;1.90;1.30;;;11.30;72.30;;;;;;5092196;28;20426;-81
2023/11/07 10:04:31;;;;;;;2.78;1.40;;;11.30;72.40;;;;;;5088930;28;20024;-75
2023/11/07 10:06:58;;;;;;;4.55;1.88;;;11.30;71.60;;;;;;5086850;28;20374;-81
2023/11/07 10:09:26;;;;;;;2.78;1.40;;;11.30;72.70;;;;;;5093406;28;20028;-81
2023/11/07 10:11:53;;;;;;;2.17;1.30;;;11.30;73.10;;;;;;5089432;28;20017;-76
2023/11/07 10:14:20;;;;;;;3.97;1.95;;;11.30;72.30;;;;;;5087265;28;20036;-81
2023/11/07 10:16:54;;;;;;;3.00;2.00;;;11.30;72.20;;;;;;5086782;28;20089;-81
2023/11/07 10:19:22;;;;;;;3.03;1.70;;;11.40;72.90;;;;;;5091989;28;20465;-81
2023/11/07 10:21:48;;;;;;;3.42;1.50;;;11.40;71.70;;;;;;5091966;28;20020;-81
2023/11/07 10:24:14;;;;;;;1.48;1.30;;;11.40;70.80;;;;;;5080787;28;20024;-75
2023/11/07 10:26:53;;;;;;;5.07;1.52;;;11.50;71.30;;;;;;5092351;28;20031;-81
2023/11/07 10:29:25;;;;;;;8.65;4.53;;;11.50;70.70;;;;;;5092795;28;20454;-76
2023/11/07 10:31:58;;;;;;;;;;;11.60;71.40;;;;;;5091577;28;20035;-76
2023/11/07 10:34:25;;;;;;;2.80;1.48;;;11.60;70.80;;;;;;5093054;28;19911;-76
2023/11/07 10:36:51;;;;;;;1.67;1.38;;;11.50;69.20;;;;;;5092347;28;20024;-76
2023/11/07 10:39:21;;;;;;;1.92;1.50;;;11.50;69.70;;;;;;5088399;28;20108;-76
2023/11/07 10:41:47;;;;;;;5.80;2.80;;;11.50;69.40;;;;;;5086725;28;20060;-81
2023/11/07 10:44:25;;;;;;;5.60;3.20;;;11.60;71.10;;;;;;5091541;28;20024;-81
2023/11/07 10:46:53;;;;;;;2.55;1.88;;;11.70;69.90;;;;;;5090868;28;20051;-82
2023/11/07 10:49:19;;;;;;;5.32;2.72;;;11.60;67.90;;;;;;5092942;28;20411;-82
2023/11/07 10:51:46;;;;;;;2.33;2.00;;;11.70;67.90;;;;;;5090037;28;20035;-82
2023/11/07 10:54:13;;;;;;;5.93;3.25;;;11.70;68.00;;;;;;5092783;28;20046;-82
2023/11/07 10:56:41;;;;;;;16.25;7.75;;;11.80;68.90;;;;;;5091246;28;20024;-81
2023/11/07 10:59:20;;;;;;;13.13;5.80;;;11.80;69.00;;;;;;5091091;28;20511;-81
2023/11/07 11:01:50;;;;;;;9.30;5.10;;;11.90;68.80;;;;;;5091305;28;20016;-81
2023/11/07 11:04:21;;;;;;;11.25;4.40;;;12.00;67.80;;;;;;5092504;28;20040;-76
2023/11/07 11:06:52;;;;;;;10.07;5.20;;;12.00;68.20;;;;;;5087200;28;20033;-82
2023/11/07 11:09:19;;;;;;;4.93;2.22;;;12.10;68.60;;;;;;5087561;28;20020;-76
2023/11/07 11:11:50;;;;;;;4.15;2.13;;;12.10;66.50;;;;;;5092592;28;20028;-76
2023/11/07 11:14:16;;;;;;;6.68;3.42;;;12.10;66.40;;;;;;5085951;28;20036;-77
2023/11/07 11:16:44;;;;;;;3.80;2.33;;;12.20;66.10;;;;;;5086165;28;20024;-83
2023/11/07 11:19:23;;;;;;;5.57;2.47;;;12.20;65.90;;;;;;5088798;28;20572;-83
2023/11/07 11:22:29;;;;;;;9.55;4.57;;;12.20;65.80;;;;;;5090190;28;20020;-76
2023/11/07 11:25:06;;;;;;;9.40;4.50;;;12.30;67.00;;;;;;5074722;28;20043;-76
2023/11/07 11:27:45;;;;;;;4.10;2.80;;;12.20;66.60;;;;;;5090596;28;20048;-76
2023/11/07 11:30:11;;;;;;;5.50;2.55;;;12.00;65.00;;;;;;5094287;28;20036;-77
2023/11/07 11:32:42;;;;;;;3.65;1.95;;;12.00;64.40;;;;;;5093827;28;20024;-76
2023/11/07 11:35:17;;;;;;;3.72;2.40;;;12.00;65.10;;;;;;5095368;28;20032;-76
2023/11/07 11:38:15;;;;;;;4.25;2.30;;;11.90;65.60;;;;;;5094947;28;20020;-83
2023/11/07 11:40:57;;;;;;;4.07;2.53;;;12.00;66.80;;;;;;5094847;28;20405;-83
2023/11/07 11:43:33;;;;;;;4.50;2.37;;;12.20;66.30;;;;;;5087417;28;20046;-82
2023/11/07 11:46:11;;;;;;;4.80;2.28;;;12.30;68.10;;;;;;5083820;28;20140;-83
2023/11/07 11:48:49;;;;;;;17.33;8.88;;;12.30;65.00;;;;;;5080380;28;20022;-76
2023/11/07 11:51:41;;;;;;;11.20;4.20;;;12.10;64.70;;;;;;5012503;28;20030;-83
2023/11/07 11:54:12;;;;;;;6.55;2.85;;;12.00;64.60;;;;;;5004319;28;20427;-82
2023/11/07 11:56:50;;;;;;;5.10;3.17;;;11.90;64.70;;;;;;5012545;28;20052;-76
2023/11/07 11:59:25;;;;;;;8.13;3.40;;;11.90;66.00;;;;;;5080333;28;20540;-76
2023/11/07 12:01:55;;;;;;;6.07;3.08;;;12.00;66.50;;;;;;5078367;28;20030;-83
2023/11/07 12:04:32;;;;;;;5.00;2.47;;;12.10;67.20;;;;;;5012363;28;20025;-83
2023/11/07 12:07:21;;;;;;;4.78;2.08;;;12.20;65.20;;;;;;5011854;28;20395;-84
2023/11/07 12:09:50;;;;;;;5.05;2.97;;;12.40;65.20;;;;;;5080160;28;20033;-76
2023/11/07 12:12:18;;;;;;;2.22;1.80;;;12.40;64.60;;;;;;5079765;28;20034;-83
2023/11/07 12:14:52;;;;;;;7.60;2.45;;;12.40;64.20;;;;;;5077537;28;20064;-76
2023/11/07 12:17:18;;;;;;;6.43;3.75;;;12.40;64.00;;;;;;5079763;28;20022;-82
2023/11/07 12:19:44;;;;;;;47.28;22.75;;;12.50;65.70;;;;;;5075445;28;20066;-83
2023/11/07 12:22:10;;;;;;;4.93;2.33;;;12.60;65.30;;;;;;5011359;28;20506;-83
2023/11/07 12:24:37;;;;;;;19.30;11.13;;;12.60;63.40;;;;;;5009471;28;20113;-83
2023/11/07 12:27:02;;;;;;;7.57;3.80;;;12.60;64.60;;;;;;5003113;28;20101;-77
2023/11/07 12:29:28;;;;;;;13.60;9.25;;;12.60;64.10;;;;;;5072610;28;20125;-83
2023/11/07 12:31:54;;;;;;;3.38;2.70;;;12.60;64.40;;;;;;5006384;28;20026;-76
2023/11/07 12:34:34;;;;;;;5.47;2.65;;;12.50;64.30;;;;;;5077425;28;20042;-76
2023/11/07 12:37:03;;;;;;;5.82;3.53;;;12.60;64.90;;;;;;5011086;28;20037;-76
2023/11/07 12:39:31;;;;;;;4.68;2.72;;;12.60;64.40;;;;;;5072501;28;20031;-77
2023/11/07 12:41:58;;;;;;;8.07;4.03;;;12.50;64.30;;;;;;5011870;28;20428;-83
2023/11/07 12:44:24;;;;;;;26.10;13.85;;;12.50;64.50;;;;;;5079510;28;20029;-76
2023/11/07 12:46:50;;;;;;;17.27;9.95;;;12.40;64.70;;;;;;5076922;28;20378;-83
2023/11/07 12:49:19;;;;;;;8.30;3.63;;;12.40;66.00;;;;;;5001527;28;20025;-83
2023/11/07 12:51:45;;;;;;;6.45;4.03;;;12.30;65.60;;;;;;5008329;28;20018;-76
2023/11/07 12:54:12;;;;;;;56.40;28.70;;;12.40;65.70;;;;;;5008671;28;20115;-83
2023/11/07 12:56:43;;;;;;;86.97;42.63;;;12.40;65.20;;;;;;5008808;28;20029;-82
2023/11/07 12:59:12;;;;;;;13.15;6.53;;;12.40;64.70;;;;;;5009424;28;20022;-83
2023/11/07 13:01:49;;;;;;;20.55;10.15;;;12.50;64.90;;;;;;5011368;28;20026;-77
2023/11/07 13:04:17;;;;;;;16.15;8.48;;;12.50;64.50;;;;;;5011693;28;20022;-77
2023/11/07 13:07:00;;;;;;;4.07;2.88;;;12.50;64.90;;;;;;5011719;28;20382;-76
2023/11/07 13:09:30;;;;;;;15.77;6.97;;;12.60;64.80;;;;;;5056830;28;20014;-83
2023/11/07 13:12:12;;;;;;;2.90;2.53;;;12.70;65.10;;;;;;5078880;28;20059;-83
2023/11/07 13:14:38;;;;;;;4.03;2.67;;;12.80;67.00;;;;;;5011513;28;20147;-76